Time;durP1;ratioP1;P1;durP2;ratioP2;P2;SDS_P1;SDS_P2;PMS_P1;PMS_P2;Temp;Humidity;BMP_temperature;BMP_pressure;BME280_temperature;BME280_humidity;BME280_pressure;Samples;Min_cycle;Max_cycle;Signal;HPM_P1;HPM_P2
2023/08/14 00:00:28;;;;;;;;;;;;;;;;;;5027417;27;89603;-66
2023/08/14 00:02:54;;;;;;;;;;;;;;;;;;5028667;27;90208;-65
2023/08/14 00:05:19;;;;;;;;;;;;;;;;;;5027134;27;90541;-67
2023/08/14 00:07:44;;;;;;;;;;;;;;;;;;5030059;27;89137;-66
2023/08/14 00:10:09;;;;;;;;;;;;;;;;;;5028531;27;89736;-67
2023/08/14 00:12:34;;;;;;;;;;;;;;;;;;5028527;27;89639;-66
2023/08/14 00:15:00;;;;;;;;;;;;;;;;;;5029828;27;89070;-65
2023/08/14 00:17:25;;;;;;;;;;;;;;;;;;5030812;27;89626;-65
2023/08/14 00:19:50;;;;;;;;;;;;;;;;;;5027869;27;90346;-66
2023/08/14 00:22:15;;;;;;;;;;;;;;;;;;5028389;27;90441;-65
2023/08/14 00:24:40;;;;;;;;;;;;;;;;;;5027676;27;89654;-67
2023/08/14 00:27:06;;;;;;;;;;;;;;;;;;5029734;27;90485;-67
2023/08/14 00:29:31;;;;;;;;;;;;;;;;;;5027197;27;89722;-68
2023/08/14 00:31:56;;;;;;;;;;;;;;;;;;5028466;27;89699;-67
2023/08/14 00:34:21;;;;;;;;;;;;;;;;;;5026481;27;89602;-67
2023/08/14 00:36:46;;;;;;;;;;;;;;;;;;5027834;27;90314;-67
2023/08/14 00:39:12;;;;;;;;;;;;;;;;;;5029864;27;90468;-67
2023/08/14 00:41:37;;;;;;;;;;;;;;;;;;5028336;27;90380;-67
2023/08/14 00:44:03;;;;;;;;;;;;;;;;;;5027996;27;89464;-67
2023/08/14 00:46:28;;;;;;;;;;;;;;;;;;5031252;27;89766;-67
2023/08/14 00:48:53;;;;;;;;;;;;;;;;;;5027951;27;89413;-67
2023/08/14 00:51:20;;;;;;;;;;;;;;;;;;5028183;27;89601;-66
2023/08/14 00:53:46;;;;;;;;;;;;;;;;;;5026006;27;89584;-66
2023/08/14 00:56:11;;;;;;;;;;;;;;;;;;5027785;27;89708;-68
2023/08/14 00:58:37;;;;;;;;;;;;;;;;;;5026979;27;89641;-67
2023/08/14 01:01:02;;;;;;;;;;;;;;;;;;5029241;27;89770;-67
2023/08/14 01:03:27;;;;;;;;;;;;;;;;;;5020876;27;89596;-67
2023/08/14 01:05:53;;;;;;;;;;;;;;;;;;5023442;27;89573;-67
2023/08/14 01:08:18;;;;;;;;;;;;;;;;;;5028420;27;89865;-67
2023/08/14 01:10:57;;;;;;;;;;;;;;;;;;5027534;27;89280;-67
2023/08/14 01:13:22;;;;;;;;;;;;;;;;;;5025432;27;89124;-66
2023/08/14 01:15:52;;;;;;;;;;;;;;;;;;5029042;27;89723;-67
2023/08/14 01:18:19;;;;;;;;;;;;;;;;;;5024202;27;88996;-66
2023/08/14 01:20:52;;;;;;;;;;;;;;;;;;5033589;27;90613;-67
2023/08/14 01:23:22;;;;;;;;;;;;;;;;;;5026460;27;89425;-67
2023/08/14 01:25:49;;;;;;;;;;;;;;;;;;5027039;27;89125;-66
2023/08/14 01:28:14;;;;;;;;;;;;;;;;;;5023903;27;89548;-66
2023/08/14 01:30:40;;;;;;;;;;;;;;;;;;5026931;27;89769;-67
2023/08/14 01:33:05;;;;;;;;;;;;;;;;;;5027860;27;89925;-66
2023/08/14 01:35:32;;;;;;;;;;;;;;;;;;5027534;27;90781;-67
2023/08/14 01:38:17;;;;;;;;;;;;;;;;;;5027705;27;89838;-67
2023/08/14 01:40:55;;;;;;;;;;;;;;;;;;5017595;27;89060;-68
2023/08/14 01:43:31;;;;;;;;;;;;;;;;;;5028926;27;90010;-65
2023/08/14 01:45:57;;;;;;;;;;;;;;;;;;5026948;27;89762;-66
2023/08/14 01:48:23;;;;;;;;;;;;;;;;;;5026680;27;89776;-67
2023/08/14 01:50:49;;;;;;;;;;;;;;;;;;5025766;27;89252;-66
2023/08/14 01:53:14;;;;;;;;;;;;;;;;;;5025294;27;89143;-67
2023/08/14 01:55:39;;;;;;;;;;;;;;;;;;5026982;27;89129;-67
2023/08/14 01:58:04;;;;;;;;;;;;;;;;;;5025839;27;90260;-65
2023/08/14 02:00:32;;;;;;;;;;;;;;;;;;5025709;27;89260;-66
2023/08/14 02:02:57;;;;;;;;;;;;;;;;;;5027800;27;91167;-66
2023/08/14 02:05:22;;;;;;;;;;;;;;;;;;5030452;27;89726;-67
2023/08/14 02:07:47;;;;;;;;;;;;;;;;;;5029689;27;90056;-67
2023/08/14 02:10:13;;;;;;;;;;;;;;;;;;5026796;27;89738;-66
2023/08/14 02:12:38;;;;;;;;;;;;;;;;;;5026037;27;89406;-67
2023/08/14 02:15:03;;;;;;;;;;;;;;;;;;5020743;27;89821;-65
2023/08/14 02:17:29;;;;;;;;;;;;;;;;;;5025158;27;89347;-67
2023/08/14 02:19:54;;;;;;;;;;;;;;;;;;5026426;27;89623;-68
2023/08/14 02:22:19;;;;;;;;;;;;;;;;;;5018191;27;90620;-65
2023/08/14 02:24:45;;;;;;;;;;;;;;;;;;5023675;27;89621;-66
2023/08/14 02:27:10;;;;;;;;;;;;;;;;;;5028319;27;89039;-64
2023/08/14 02:29:35;;;;;;;;;;;;;;;;;;5018204;27;89829;-66
2023/08/14 02:32:00;;;;;;;;;;;;;;;;;;5016331;27;89554;-64
2023/08/14 02:34:33;;;;;;;;;;;;;;;;;;5020906;27;90584;-65
2023/08/14 02:36:58;;;;;;;;;;;;;;;;;;5022169;27;91172;-66
2023/08/14 02:39:23;;;;;;;;;;;;;;;;;;5017359;27;89758;-64
2023/08/14 02:41:49;;;;;;;;;;;;;;;;;;5023777;27;90398;-66
2023/08/14 02:44:14;;;;;;;;;;;;;;;;;;5021756;27;89773;-65
2023/08/14 02:46:39;;;;;;;;;;;;;;;;;;5023910;27;90242;-65
2023/08/14 02:49:04;;;;;;;;;;;;;;;;;;5025924;27;91675;-65
2023/08/14 02:51:29;;;;;;;;;;;;;;;;;;5025211;27;89660;-65
2023/08/14 02:53:55;;;;;;;;;;;;;;;;;;5027022;27;90074;-65
2023/08/14 02:56:20;;;;;;;;;;;;;;;;;;5025037;27;89327;-65
2023/08/14 02:58:45;;;;;;;;;;;;;;;;;;5019319;27;89051;-65
2023/08/14 03:01:10;;;;;;;;;;;;;;;;;;5025516;27;90007;-65
2023/08/14 03:03:35;;;;;;;;;;;;;;;;;;5026622;27;90381;-65
2023/08/14 03:06:01;;;;;;;;;;;;;;;;;;5024450;27;90095;-65
2023/08/14 03:08:26;;;;;;;;;;;;;;;;;;5020509;27;91480;-66
2023/08/14 03:10:51;;;;;;;;;;;;;;;;;;5028261;27;89518;-67
2023/08/14 03:13:16;;;;;;;;;;;;;;;;;;5017088;27;92594;-65
2023/08/14 03:15:41;;;;;;;;;;;;;;;;;;5025427;27;90143;-65
2023/08/14 03:18:07;;;;;;;;;;;;;;;;;;5024118;27;89315;-65
2023/08/14 03:20:32;;;;;;;;;;;;;;;;;;5024036;27;90615;-66
2023/08/14 03:22:57;;;;;;;;;;;;;;;;;;5023706;27;90246;-65
2023/08/14 03:25:22;;;;;;;;;;;;;;;;;;5026331;27;89735;-64
2023/08/14 03:27:47;;;;;;;;;;;;;;;;;;5024682;27;89718;-66
2023/08/14 03:30:13;;;;;;;;;;;;;;;;;;5026264;27;89511;-65
2023/08/14 03:32:38;;;;;;;;;;;;;;;;;;5025102;27;90357;-66
2023/08/14 03:35:03;;;;;;;;;;;;;;;;;;5025460;27;89550;-67
2023/08/14 03:37:29;;;;;;;;;;;;;;;;;;5024746;27;89739;-64
2023/08/14 03:39:54;;;;;;;;;;;;;;;;;;5023445;27;90682;-65
2023/08/14 03:42:19;;;;;;;;;;;;;;;;;;5025057;27;90570;-66
2023/08/14 03:44:44;;;;;;;;;;;;;;;;;;5023337;27;90361;-65
2023/08/14 03:47:09;;;;;;;;;;;;;;;;;;5028222;27;89750;-66
2023/08/14 03:49:35;;;;;;;;;;;;;;;;;;5027425;27;90433;-66
2023/08/14 03:52:00;;;;;;;;;;;;;;;;;;5031586;27;89244;-67
2023/08/14 03:54:25;;;;;;;;;;;;;;;;;;5023217;27;89694;-67
2023/08/14 03:56:50;;;;;;;;;;;;;;;;;;5032099;27;89571;-66
2023/08/14 03:59:15;;;;;;;;;;;;;;;;;;5023804;27;89710;-66
2023/08/14 04:01:42;;;;;;;;;;;;;;;;;;5029013;27;89538;-66
2023/08/14 04:04:08;;;;;;;;;;;;;;;;;;5055131;27;90690;-66
2023/08/14 04:06:34;;;;;;;;;;;;;;;;;;5025320;27;89875;-66
2023/08/14 04:09:01;;;;;;;;;;;;;;;;;;5026961;27;89660;-67
2023/08/14 04:11:26;;;;;;;;;;;;;;;;;;5023408;27;90248;-66
2023/08/14 04:13:52;;;;;;;;;;;;;;;;;;5028395;27;89769;-67
2023/08/14 04:16:17;;;;;;;;;;;;;;;;;;5027964;27;89310;-65
2023/08/14 04:18:42;;;;;;;;;;;;;;;;;;5028184;27;89754;-65
2023/08/14 04:21:07;;;;;;;;;;;;;;;;;;5025261;27;90366;-65
2023/08/14 04:23:33;;;;;;;;;;;;;;;;;;5028085;27;88963;-66
2023/08/14 04:25:58;;;;;;;;;;;;;;;;;;5027781;27;89786;-66
2023/08/14 04:28:23;;;;;;;;;;;;;;;;;;5027790;27;89592;-66
2023/08/14 04:30:49;;;;;;;;;;;;;;;;;;5057156;27;89738;-66
2023/08/14 04:33:14;;;;;;;;;;;;;;;;;;5018566;27;89700;-67
2023/08/14 04:35:40;;;;;;;;;;;;;;;;;;5031143;27;90712;-67
2023/08/14 04:38:05;;;;;;;;;;;;;;;;;;5028435;27;90661;-66
2023/08/14 04:40:30;;;;;;;;;;;;;;;;;;5025002;27;90210;-67
2023/08/14 04:42:55;;;;;;;;;;;;;;;;;;5024702;27;89745;-67
2023/08/14 04:45:21;;;;;;;;;;;;;;;;;;5021916;27;90680;-64
2023/08/14 04:47:46;;;;;;;;;;;;;;;;;;5028763;27;92149;-64
2023/08/14 04:50:12;;;;;;;;;;;;;;;;;;5025288;27;89913;-65
2023/08/14 04:52:37;;;;;;;;;;;;;;;;;;5030014;27;90638;-64
2023/08/14 04:55:02;;;;;;;;;;;;;;;;;;5027162;27;91391;-64
2023/08/14 04:57:27;;;;;;;;;;;;;;;;;;5028928;27;89032;-65
2023/08/14 04:59:52;;;;;;;;;;;;;;;;;;5024586;27;90836;-68
2023/08/14 05:02:18;;;;;;;;;;;;;;;;;;5024991;27;89075;-66
2023/08/14 05:04:43;;;;;;;;;;;;;;;;;;5027182;27;89373;-66
2023/08/14 05:07:08;;;;;;;;;;;;;;;;;;5026570;27;89646;-68
2023/08/14 05:09:33;;;;;;;;;;;;;;;;;;5027475;27;89502;-66
2023/08/14 05:11:58;;;;;;;;;;;;;;;;;;5026257;27;90325;-67
2023/08/14 05:14:24;;;;;;;;;;;;;;;;;;5022503;27;89739;-66
2023/08/14 05:16:49;;;;;;;;;;;;;;;;;;5027739;27;89110;-67
2023/08/14 05:19:14;;;;;;;;;;;;;;;;;;5028223;27;90030;-67
2023/08/14 05:21:40;;;;;;;;;;;;;;;;;;5026811;27;88986;-64
2023/08/14 05:24:05;;;;;;;;;;;;;;;;;;5018229;27;90702;-65
2023/08/14 18:14:51;;;;;;;;;;;;;;;;;;5016470;27;83537;-62
2023/08/14 18:17:17;;;;;;;;;;;;;;;;;;4982784;27;94154;-69
2023/08/14 18:19:42;;;;;;;;;;;;;;;;;;4990859;28;89422;-67
2023/08/14 18:22:07;;;;;;;;;;;;;;;;;;4994670;28;89341;-65
2023/08/14 18:24:32;;;;;;;;;;;;;;;;;;4996153;28;89281;-64
2023/08/14 18:26:58;;;;;;;;;;;;;;;;;;4994484;28;89139;-66
2023/08/14 18:29:23;;;;;;;;;;;;;;;;;;4991619;28;89255;-63
2023/08/14 18:31:48;;;;;;;;;;;;;;;;;;4991199;28;90289;-71
2023/08/14 18:34:13;;;;;;;;;;;;;;;;;;4995683;28;90256;-65
2023/08/14 18:36:38;;;;;;;;;;;;;;;;;;4995776;28;90550;-67
2023/08/14 18:39:04;;;;;;;;;;;;;;;;;;4991744;28;89850;-70
2023/08/14 18:41:29;;;;;;;;;;;;;;;;;;4997398;28;90030;-64
2023/08/14 18:43:54;;;;;;;;;;;;;;;;;;4992739;28;89850;-69
2023/08/14 18:46:20;;;;;;;;;;;;;;;;;;5000464;28;91103;-66
2023/08/14 18:48:45;;;;;;;;;;;;;;;;;;4994193;28;89560;-67
2023/08/14 18:51:10;;;;;;;;;;;;;;;;;;4992367;28;91104;-63
2023/08/14 18:53:35;;;;;;;;;;;;;;;;;;4994141;28;89871;-63
2023/08/14 18:56:01;;;;;;;;;;;;;;;;;;4993185;28;89138;-67
2023/08/14 18:58:26;;;;;;;;;;;;;;;;;;4994168;28;89660;-64
2023/08/14 19:00:51;;;;;;;;;;;;;;;;;;4992465;28;89856;-64
2023/08/14 19:03:17;;;;;;;;;;;;;;;;;;4992440;28;90773;-64
2023/08/14 19:05:45;;;;;;;;;;;;;;;;;;4996098;28;89071;-67
2023/08/14 19:08:10;;;;;;;;;;;;;;;;;;4995432;28;89911;-68
2023/08/14 19:10:36;;;;;;;;;;;;;;;;;;4974661;27;90914;-65
2023/08/14 19:13:01;;;;;;;;;;;;;;;;;;4927522;27;89759;-66
2023/08/14 19:15:27;;;;;;;;;;;;;;;;;;4988888;27;89745;-74
2023/08/14 19:17:52;;;;;;;;;;;;;;;;;;4978219;28;90717;-63
2023/08/14 19:20:17;;;;;;;;;;;;;;;;;;4971634;28;90124;-64
2023/08/14 19:22:42;;;;;;;;;;;;;;;;;;4973813;28;89784;-65
2023/08/14 19:25:07;;;;;;;;;;;;;;;;;;4970247;28;89940;-67
2023/08/14 19:27:33;;;;;;;;;;;;;;;;;;4956513;28;93554;-74
2023/08/14 19:29:58;;;;;;;;;;;;;;;;;;4956181;28;93395;-63
2023/08/14 19:32:23;;;;;;;;;;;;;;;;;;4959846;28;90640;-66
2023/08/14 19:34:48;;;;;;;;;;;;;;;;;;4959125;28;90318;-77
2023/08/14 19:37:14;;;;;;;;;;;;;;;;;;4959814;28;89873;-63
2023/08/14 19:39:39;;;;;;;;;;;;;;;;;;4960807;28;90148;-69
2023/08/14 19:42:05;;;;;;;;;;;;;;;;;;4959778;28;91065;-65
2023/08/14 19:44:30;;;;;;;;;;;;;;;;;;4964160;28;90595;-63
2023/08/14 19:46:55;;;;;;;;;;;;;;;;;;4955514;28;89901;-74
2023/08/14 19:49:21;;;;;;;;;;;;;;;;;;4975235;28;89910;-65
2023/08/14 19:51:46;;;;;;;;;;;;;;;;;;4961489;28;88981;-76
2023/08/14 19:54:11;;;;;;;;;;;;;;;;;;4977501;28;89373;-64
2023/08/14 19:56:36;;;;;;;;;;;;;;;;;;4963126;28;89674;-69
2023/08/14 19:59:01;;;;;;;;;;;;;;;;;;4956034;28;89333;-68
2023/08/14 20:01:27;;;;;;;;;;;;;;;;;;4965347;28;90234;-69
2023/08/14 20:03:52;;;;;;;;;;;;;;;;;;4956086;28;89283;-66
2023/08/14 20:06:18;;;;;;;;;;;;;;;;;;4963549;28;89026;-67
2023/08/14 20:08:43;;;;;;;;;;;;;;;;;;4956786;28;90645;-72
2023/08/14 20:11:09;;;;;;;;;;;;;;;;;;4962171;28;90501;-64
2023/08/14 20:13:34;;;;;;;;;;;;;;;;;;4987825;28;89981;-70
2023/08/14 20:15:59;;;;;;;;;;;;;;;;;;4959208;28;89849;-63
2023/08/14 20:18:25;;;;;;;;;;;;;;;;;;4960867;28;90507;-64
2023/08/14 20:20:51;;;;;;;;;;;;;;;;;;4959465;28;90837;-68
2023/08/14 20:23:16;;;;;;;;;;;;;;;;;;4964634;28;90505;-68
2023/08/14 20:25:45;;;;;;;;;;;;;;;;;;4962190;28;89540;-68
2023/08/14 20:28:11;;;;;;;;;;;;;;;;;;4962041;28;91724;-64
2023/08/14 20:30:39;;;;;;;;;;;;;;;;;;4961467;28;89343;-64
2023/08/14 20:33:04;;;;;;;;;;;;;;;;;;4961518;28;90030;-72
2023/08/14 20:35:29;;;;;;;;;;;;;;;;;;4964499;28;89788;-64
2023/08/14 20:37:54;;;;;;;;;;;;;;;;;;4955419;28;89745;-64
2023/08/14 20:40:20;;;;;;;;;;;;;;;;;;4964451;28;89758;-64
2023/08/14 20:42:45;;;;;;;;;;;;;;;;;;4966578;28;89524;-66
2023/08/14 20:45:10;;;;;;;;;;;;;;;;;;4958314;28;89417;-68
2023/08/14 20:47:35;;;;;;;;;;;;;;;;;;4958413;28;89699;-66
2023/08/14 20:50:01;;;;;;;;;;;;;;;;;;4956969;28;89932;-72
2023/08/14 20:52:26;;;;;;;;;;;;;;;;;;4938318;27;90635;-65
2023/08/14 20:54:51;;;;;;;;;;;;;;;;;;4994085;28;89748;-72
2023/08/14 20:57:17;;;;;;;;;;;;;;;;;;4983777;28;90267;-74
2023/08/14 20:59:42;;;;;;;;;;;;;;;;;;4979271;28;89272;-63
2023/08/14 21:02:08;;;;;;;;;;;;;;;;;;4982598;28;90554;-68
2023/08/14 21:04:36;;;;;;;;;;;;;;;;;;4983189;28;90251;-68
2023/08/14 21:07:02;;;;;;;;;;;;;;;;;;4983729;28;90280;-66
2023/08/14 21:09:27;;;;;;;;;;;;;;;;;;4976867;28;90864;-64
2023/08/14 21:11:52;;;;;;;;;;;;;;;;;;4980263;28;89416;-64
2023/08/14 21:14:17;;;;;;;;;;;;;;;;;;4973958;28;89773;-67
2023/08/14 21:16:43;;;;;;;;;;;;;;;;;;4985012;28;90214;-67
2023/08/14 21:19:08;;;;;;;;;;;;;;;;;;4982946;28;90036;-65
2023/08/14 21:21:33;;;;;;;;;;;;;;;;;;4975472;28;90218;-69
2023/08/14 21:23:58;;;;;;;;;;;;;;;;;;4982426;28;89724;-65
2023/08/14 21:26:23;;;;;;;;;;;;;;;;;;4990939;28;89677;-66
2023/08/14 21:28:49;;;;;;;;;;;;;;;;;;4979203;28;91831;-64
2023/08/14 21:31:14;;;;;;;;;;;;;;;;;;4979384;28;89600;-64
2023/08/14 21:33:39;;;;;;;;;;;;;;;;;;4981815;28;89685;-64
2023/08/14 21:36:04;;;;;;;;;;;;;;;;;;4991466;28;91852;-66
2023/08/14 21:38:30;;;;;;;;;;;;;;;;;;4980126;28;89733;-66
2023/08/14 21:40:55;;;;;;;;;;;;;;;;;;4984475;28;89439;-65
2023/08/14 21:43:20;;;;;;;;;;;;;;;;;;4981376;28;89208;-65
2023/08/14 21:45:46;;;;;;;;;;;;;;;;;;4980315;28;89436;-65
2023/08/14 21:48:11;;;;;;;;;;;;;;;;;;4990780;28;89441;-65
2023/08/14 21:50:36;;;;;;;;;;;;;;;;;;4993174;28;89636;-64
2023/08/14 21:53:01;;;;;;;;;;;;;;;;;;4981458;28;91229;-65
2023/08/14 21:55:27;;;;;;;;;;;;;;;;;;4981995;28;90257;-63
2023/08/14 21:57:52;;;;;;;;;;;;;;;;;;4977526;28;89484;-63
2023/08/14 22:00:17;;;;;;;;;;;;;;;;;;4984002;28;89664;-71
2023/08/14 22:02:42;;;;;;;;;;;;;;;;;;4974270;28;90462;-71
2023/08/14 22:05:08;;;;;;;;;;;;;;;;;;4974110;28;90342;-66
2023/08/14 22:07:33;;;;;;;;;;;;;;;;;;4986432;28;89395;-68
2023/08/14 22:09:58;;;;;;;;;;;;;;;;;;4985880;28;89423;-64
2023/08/14 22:12:23;;;;;;;;;;;;;;;;;;4982667;28;90167;-66
2023/08/14 22:14:48;;;;;;;;;;;;;;;;;;4978248;28;90358;-64
2023/08/14 22:17:14;;;;;;;;;;;;;;;;;;4987502;28;89648;-65
2023/08/14 22:19:39;;;;;;;;;;;;;;;;;;4983681;28;90599;-67
2023/08/14 22:22:04;;;;;;;;;;;;;;;;;;4981887;28;89788;-64
2023/08/14 22:24:29;;;;;;;;;;;;;;;;;;4980627;28;89675;-67
2023/08/14 22:26:54;;;;;;;;;;;;;;;;;;4987056;28;89571;-68
2023/08/14 22:29:20;;;;;;;;;;;;;;;;;;4995902;28;90405;-65
2023/08/14 22:31:45;;;;;;;;;;;;;;;;;;4983848;28;89665;-67
2023/08/14 22:34:10;;;;;;;;;;;;;;;;;;4978618;28;90120;-65
2023/08/14 22:36:35;;;;;;;;;;;;;;;;;;4975813;28;89095;-65
2023/08/14 22:39:00;;;;;;;;;;;;;;;;;;4977372;28;90684;-64
2023/08/14 22:41:26;;;;;;;;;;;;;;;;;;4980620;28;89307;-64
2023/08/14 22:43:51;;;;;;;;;;;;;;;;;;4984132;28;89033;-64
2023/08/14 22:46:16;;;;;;;;;;;;;;;;;;4977728;28;89592;-64
2023/08/14 22:48:41;;;;;;;;;;;;;;;;;;4977360;28;89684;-64
2023/08/14 22:51:06;;;;;;;;;;;;;;;;;;4979853;28;90585;-64
2023/08/14 22:53:31;;;;;;;;;;;;;;;;;;4979996;28;89109;-64
2023/08/14 22:55:57;;;;;;;;;;;;;;;;;;4974193;28;89783;-65
2023/08/14 22:58:23;;;;;;;;;;;;;;;;;;4974948;28;90812;-64
2023/08/14 23:00:48;;;;;;;;;;;;;;;;;;4983939;28;89379;-69
2023/08/14 23:03:13;;;;;;;;;;;;;;;;;;4986939;28;89976;-69
2023/08/14 23:05:38;;;;;;;;;;;;;;;;;;4985958;28;89669;-70
2023/08/14 23:08:04;;;;;;;;;;;;;;;;;;4979805;28;89664;-72
2023/08/14 23:10:29;;;;;;;;;;;;;;;;;;4983029;28;89031;-67
2023/08/14 23:12:54;;;;;;;;;;;;;;;;;;4984823;28;90197;-66
2023/08/14 23:15:19;;;;;;;;;;;;;;;;;;4976166;28;89629;-68
2023/08/14 23:17:44;;;;;;;;;;;;;;;;;;4981524;28;90052;-64
2023/08/14 23:20:10;;;;;;;;;;;;;;;;;;4981777;28;90094;-65
2023/08/14 23:22:35;;;;;;;;;;;;;;;;;;4980796;28;89073;-66
2023/08/14 23:25:00;;;;;;;;;;;;;;;;;;4974771;28;89509;-70
2023/08/14 23:27:26;;;;;;;;;;;;;;;;;;4987893;28;89404;-69
2023/08/14 23:29:51;;;;;;;;;;;;;;;;;;4982748;28;89519;-70
2023/08/14 23:32:17;;;;;;;;;;;;;;;;;;4981083;28;90196;-67
2023/08/14 23:34:42;;;;;;;;;;;;;;;;;;4982113;28;90056;-70
2023/08/14 23:37:07;;;;;;;;;;;;;;;;;;4980678;28;90248;-65
2023/08/14 23:39:32;;;;;;;;;;;;;;;;;;4978290;28;90231;-64
2023/08/14 23:41:57;;;;;;;;;;;;;;;;;;4988843;28;89849;-65
2023/08/14 23:44:23;;;;;;;;;;;;;;;;;;4981050;28;89573;-67
2023/08/14 23:46:48;;;;;;;;;;;;;;;;;;4978993;28;89200;-64
2023/08/14 23:49:13;;;;;;;;;;;;;;;;;;4985866;28;89956;-64
2023/08/14 23:51:38;;;;;;;;;;;;;;;;;;4979604;28;89523;-71
2023/08/14 23:54:04;;;;;;;;;;;;;;;;;;4981837;28;89746;-63
2023/08/14 23:56:29;;;;;;;;;;;;;;;;;;4990418;28;89506;-65
2023/08/14 23:58:54;;;;;;;;;;;;;;;;;;4980601;28;90073;-64
